This is the latest recevied weather packets stored in our database for station/object KD2RHT-13. If no packets are shown the sender has not sent any weather packets the latest 10 day(s).
| Time | Temp. | Humidity | Pressure | Rain* | Wind** | Luminosity | Snow |
|---|---|---|---|---|---|---|---|
| 1777948075 | 17.78° C | 53% | 1005.3 hPa | 0 mm | - | 0 W/m² | - |
| 1777947772 | 17.78° C | 54% | 1005.3 hPa | 0 mm | - | 0 W/m² | - |
| 1777947469 | 17.22° C | 54% | 1005.3 hPa | 0 mm | - | 0 W/m² | - |
| 1777947166 | 16.67° C | 57% | 1005.3 hPa | 0 mm | - | 0 W/m² | - |
| 1777946861 | 16.11° C | 59% | 1005.3 hPa | 0 mm | - | 0 W/m² | - |
| 1777946557 | 15.56° C | 62% | 1005.3 hPa | 0 mm | - | 0 W/m² | - |
| 1777946254 | 15.56° C | 62% | 1005.3 hPa | 0 mm | - | 0 W/m² | - |
| 1777945951 | 14.44° C | 68% | 1005 hPa | 0 mm | - | 0 W/m² | - |
| 1777945648 | 14.44° C | 68% | 1005.3 hPa | 0 mm | - | 0 W/m² | - |
| 1777945345 | 14.44° C | 69% | 1005 hPa | 0 mm | - | 0 W/m² | - |
| 1777945042 | 14.44° C | 67% | 1005.3 hPa | 0 mm | - | 0 W/m² | - |
| 1777944739 | 15° C | 68% | 1005.3 hPa | 0 mm | - | 0 W/m² | - |
| 1777944437 | 15° C | 67% | 1005.6 hPa | 0 mm | - | 0 W/m² | - |
| 1777944134 | 15° C | 65% | 1005.3 hPa | 0 mm | - | 0 W/m² | - |
| 1777943830 | 15° C | 65% | 1005 hPa | 0 mm | - | 0 W/m² | - |
| 1777943528 | 15.56° C | 63% | 1005.3 hPa | 0 mm | - | 0 W/m² | - |
| 1777943222 | 15.56° C | 62% | 1005.3 hPa | 0 mm | - | 0 W/m² | - |
| 1777942920 | 15.56° C | 62% | 1005.3 hPa | 0 mm | - | 0 W/m² | - |
| 1777942615 | 16.11° C | 61% | 1005 hPa | 0 mm | - | 0 W/m² | - |
| 1777942313 | 16.11° C | 61% | 1005.3 hPa | 0 mm | - | 0 W/m² | - |
| 1777942010 | 16.67° C | 60% | 1005.3 hPa | 0 mm | - | 0 W/m² | - |
| 1777941706 | 16.67° C | 60% | 1005 hPa | 0 mm | - | 0 W/m² | - |
| 1777941404 | 16.67° C | 59% | 1005 hPa | 0 mm | - | 0 W/m² | - |
| 1777941101 | 16.67° C | 58% | 1005.3 hPa | 0 mm | - | 0 W/m² | - |
| 1777940797 | 17.22° C | 57% | 1005.3 hPa | 0 mm | - | 0 W/m² | - |
* Rain latest hour (hover to see other rain measurements)
** Current wind speed in m/s (hover to see current wind gust speed)